KJLN

Joplin Regional Airport

Joplin, Missouri, USA
METAR KJLN 181453Z 20014KT 10SM CLR M04/M13 A3038 RMK AO2 SLP302 T10441128 56006
Observed Flight Rules
Jan-18 @ 14:53 UTC (49 minutes ago) Visual Flight Rules
Wind Visibility Clouds
200° at 14 knots 10 miles
  • Clear skies
Temperatures Readings
Current -4°C / 25°F
Dewpoint -13°C / 9°F
Humidity 50%
Altimeter 30.38" Hg
Pressure 1030.2 hPa
Elevation 299
METAR KJLN 181453Z 20014KT 10SM CLR M04/M13 A3038 RMK AO2 SLP302 T10441128 56006
Observed Flight Rules
Jan-18 @ 14:53 UTC
(49 minutes ago)
VFR
Wind Visibility
200° at 14 knots 10 miles
Clouds
  • Clear skies
Temperature Dewpoint
-4°C / 25°F -13°C / 9°F
Humidity Altimeter Pressure
50% 30.38" Hg 1030.2 hPa